sensor_id;sensor_type;location;lat;lon;timestamp;temperature;humidity
22742;DHT22;11538;48.884;8.696;2023-09-12T00:02:15;21.60;99.90
22742;DHT22;11538;48.884;8.696;2023-09-12T00:04:42;21.50;99.90
22742;DHT22;11538;48.884;8.696;2023-09-12T00:07:09;21.50;99.90
22742;DHT22;11538;48.884;8.696;2023-09-12T00:09:36;21.50;99.90
22742;DHT22;11538;48.884;8.696;2023-09-12T00:12:03;21.50;99.90
22742;DHT22;11538;48.884;8.696;2023-09-12T00:14:30;21.50;99.90
22742;DHT22;11538;48.884;8.696;2023-09-12T00:16:57;21.50;99.90
22742;DHT22;11538;48.884;8.696;2023-09-12T00:19:24;21.50;99.90
22742;DHT22;11538;48.884;8.696;2023-09-12T00:21:51;21.50;99.90
22742;DHT22;11538;48.884;8.696;2023-09-12T00:24:20;21.40;99.90
22742;DHT22;11538;48.884;8.696;2023-09-12T00:26:47;21.40;99.90
22742;DHT22;11538;48.884;8.696;2023-09-12T00:29:13;21.30;99.90
22742;DHT22;11538;48.884;8.696;2023-09-12T00:31:41;21.30;99.90
22742;DHT22;11538;48.884;8.696;2023-09-12T00:34:08;21.30;99.90
22742;DHT22;11538;48.884;8.696;2023-09-12T00:36:35;21.30;99.90
22742;DHT22;11538;48.884;8.696;2023-09-12T00:39:04;21.30;99.90
22742;DHT22;11538;48.884;8.696;2023-09-12T00:41:31;21.30;99.90
22742;DHT22;11538;48.884;8.696;2023-09-12T00:43:58;21.40;99.90
22742;DHT22;11538;48.884;8.696;2023-09-12T00:46:26;21.40;99.90
22742;DHT22;11538;48.884;8.696;2023-09-12T00:48:55;21.40;99.90
22742;DHT22;11538;48.884;8.696;2023-09-12T00:51:26;21.40;99.90
22742;DHT22;11538;48.884;8.696;2023-09-12T00:53:54;21.30;99.90
22742;DHT22;11538;48.884;8.696;2023-09-12T00:56:22;21.40;99.90
22742;DHT22;11538;48.884;8.696;2023-09-12T00:58:49;21.40;99.90
22742;DHT22;11538;48.884;8.696;2023-09-12T01:01:19;21.30;99.90
22742;DHT22;11538;48.884;8.696;2023-09-12T01:03:47;21.30;99.90
22742;DHT22;11538;48.884;8.696;2023-09-12T01:06:15;21.20;99.90
22742;DHT22;11538;48.884;8.696;2023-09-12T01:08:47;21.10;99.90
22742;DHT22;11538;48.884;8.696;2023-09-12T01:11:14;21.10;99.90
22742;DHT22;11538;48.884;8.696;2023-09-12T01:13:41;21.00;99.90
22742;DHT22;11538;48.884;8.696;2023-09-12T01:16:08;21.10;99.90
22742;DHT22;11538;48.884;8.696;2023-09-12T01:18:36;21.00;99.90
22742;DHT22;11538;48.884;8.696;2023-09-12T01:21:32;21.00;99.90
22742;DHT22;11538;48.884;8.696;2023-09-12T01:27:15;20.90;99.90
22742;DHT22;11538;48.884;8.696;2023-09-12T01:29:46;20.90;99.90
22742;DHT22;11538;48.884;8.696;2023-09-12T01:32:18;21.00;99.90
22742;DHT22;11538;48.884;8.696;2023-09-12T01:34:46;21.00;99.90
22742;DHT22;11538;48.884;8.696;2023-09-12T01:37:14;21.00;99.90
22742;DHT22;11538;48.884;8.696;2023-09-12T01:39:41;21.00;99.90
22742;DHT22;11538;48.884;8.696;2023-09-12T01:42:11;21.00;99.90
22742;DHT22;11538;48.884;8.696;2023-09-12T01:44:43;20.90;99.90
22742;DHT22;11538;48.884;8.696;2023-09-12T01:47:12;20.90;99.90
22742;DHT22;11538;48.884;8.696;2023-09-12T01:49:45;20.80;99.90
22742;DHT22;11538;48.884;8.696;2023-09-12T01:52:16;20.70;99.90
22742;DHT22;11538;48.884;8.696;2023-09-12T01:54:44;20.60;99.90
22742;DHT22;11538;48.884;8.696;2023-09-12T01:57:12;20.60;99.90
22742;DHT22;11538;48.884;8.696;2023-09-12T01:59:40;20.60;99.90
22742;DHT22;11538;48.884;8.696;2023-09-12T02:02:07;20.60;99.90
22742;DHT22;11538;48.884;8.696;2023-09-12T02:04:34;20.60;99.90
22742;DHT22;11538;48.884;8.696;2023-09-12T02:07:01;20.60;99.90
22742;DHT22;11538;48.884;8.696;2023-09-12T02:09:28;20.60;99.90
22742;DHT22;11538;48.884;8.696;2023-09-12T02:11:55;20.60;99.90
22742;DHT22;11538;48.884;8.696;2023-09-12T02:14:22;20.60;99.90
22742;DHT22;11538;48.884;8.696;2023-09-12T02:16:49;20.60;99.90
22742;DHT22;11538;48.884;8.696;2023-09-12T02:19:15;20.60;99.90
22742;DHT22;11538;48.884;8.696;2023-09-12T02:21:43;20.70;99.90
22742;DHT22;11538;48.884;8.696;2023-09-12T02:24:10;20.70;99.90
22742;DHT22;11538;48.884;8.696;2023-09-12T02:26:37;20.70;99.90
22742;DHT22;11538;48.884;8.696;2023-09-12T02:29:04;20.70;99.90
22742;DHT22;11538;48.884;8.696;2023-09-12T02:31:32;20.70;99.90
22742;DHT22;11538;48.884;8.696;2023-09-12T02:33:59;20.70;99.90
22742;DHT22;11538;48.884;8.696;2023-09-12T02:36:28;20.70;99.90
22742;DHT22;11538;48.884;8.696;2023-09-12T02:38:55;20.70;99.90
22742;DHT22;11538;48.884;8.696;2023-09-12T02:41:22;20.70;99.90
22742;DHT22;11538;48.884;8.696;2023-09-12T02:43:49;20.70;99.90
22742;DHT22;11538;48.884;8.696;2023-09-12T02:46:16;20.70;99.90
22742;DHT22;11538;48.884;8.696;2023-09-12T02:48:43;20.70;99.90
22742;DHT22;11538;48.884;8.696;2023-09-12T02:51:11;20.70;99.90
22742;DHT22;11538;48.884;8.696;2023-09-12T02:53:38;20.70;99.90
22742;DHT22;11538;48.884;8.696;2023-09-12T02:56:05;20.60;99.90
22742;DHT22;11538;48.884;8.696;2023-09-12T02:58:32;20.60;99.90
22742;DHT22;11538;48.884;8.696;2023-09-12T03:00:59;20.60;99.90
22742;DHT22;11538;48.884;8.696;2023-09-12T03:03:27;20.60;99.90
22742;DHT22;11538;48.884;8.696;2023-09-12T03:06:00;20.60;99.90
22742;DHT22;11538;48.884;8.696;2023-09-12T03:08:29;20.70;99.90
22742;DHT22;11538;48.884;8.696;2023-09-12T03:10:57;20.70;99.90
22742;DHT22;11538;48.884;8.696;2023-09-12T03:13:26;20.70;99.90
22742;DHT22;11538;48.884;8.696;2023-09-12T03:15:54;20.70;99.90
22742;DHT22;11538;48.884;8.696;2023-09-12T03:18:21;20.60;99.90
22742;DHT22;11538;48.884;8.696;2023-09-12T03:20:49;20.60;99.90
22742;DHT22;11538;48.884;8.696;2023-09-12T03:23:16;20.60;99.90
22742;DHT22;11538;48.884;8.696;2023-09-12T03:25:43;20.60;99.90
22742;DHT22;11538;48.884;8.696;2023-09-12T03:28:10;20.60;99.90
22742;DHT22;11538;48.884;8.696;2023-09-12T03:30:38;20.60;99.90
22742;DHT22;11538;48.884;8.696;2023-09-12T03:33:06;20.60;99.90
22742;DHT22;11538;48.884;8.696;2023-09-12T03:35:33;20.60;99.90
22742;DHT22;11538;48.884;8.696;2023-09-12T03:38:01;20.50;99.90
22742;DHT22;11538;48.884;8.696;2023-09-12T03:40:31;20.40;99.90
22742;DHT22;11538;48.884;8.696;2023-09-12T03:42:58;20.50;99.90
22742;DHT22;11538;48.884;8.696;2023-09-12T03:45:25;20.40;99.90
22742;DHT22;11538;48.884;8.696;2023-09-12T03:47:53;20.40;99.90
22742;DHT22;11538;48.884;8.696;2023-09-12T03:50:20;20.50;99.90
22742;DHT22;11538;48.884;8.696;2023-09-12T03:52:46;20.50;99.90
22742;DHT22;11538;48.884;8.696;2023-09-12T03:55:14;20.40;99.90
22742;DHT22;11538;48.884;8.696;2023-09-12T03:57:40;20.40;99.90
22742;DHT22;11538;48.884;8.696;2023-09-12T04:00:08;20.40;99.90
22742;DHT22;11538;48.884;8.696;2023-09-12T04:02:35;20.40;99.90
22742;DHT22;11538;48.884;8.696;2023-09-12T04:05:02;20.40;99.90
22742;DHT22;11538;48.884;8.696;2023-09-12T04:07:30;20.40;99.90
22742;DHT22;11538;48.884;8.696;2023-09-12T04:09:56;20.40;99.90
22742;DHT22;11538;48.884;8.696;2023-09-12T04:12:23;20.40;99.90
22742;DHT22;11538;48.884;8.696;2023-09-12T04:14:50;20.40;99.90
22742;DHT22;11538;48.884;8.696;2023-09-12T04:17:19;20.40;99.90
22742;DHT22;11538;48.884;8.696;2023-09-12T04:19:46;20.40;99.90
22742;DHT22;11538;48.884;8.696;2023-09-12T04:22:13;20.30;99.90
22742;DHT22;11538;48.884;8.696;2023-09-12T04:24:40;20.30;99.90
22742;DHT22;11538;48.884;8.696;2023-09-12T04:27:07;20.20;99.90
22742;DHT22;11538;48.884;8.696;2023-09-12T04:29:35;20.20;99.90
22742;DHT22;11538;48.884;8.696;2023-09-12T04:32:03;20.20;99.90
22742;DHT22;11538;48.884;8.696;2023-09-12T04:34:30;20.20;99.90
22742;DHT22;11538;48.884;8.696;2023-09-12T04:36:57;20.20;99.90
22742;DHT22;11538;48.884;8.696;2023-09-12T04:39:25;20.20;99.90
22742;DHT22;11538;48.884;8.696;2023-09-12T04:41:52;20.20;99.90
22742;DHT22;11538;48.884;8.696;2023-09-12T04:44:19;20.20;99.90
22742;DHT22;11538;48.884;8.696;2023-09-12T04:46:45;20.10;99.90
22742;DHT22;11538;48.884;8.696;2023-09-12T04:49:13;20.10;99.90
22742;DHT22;11538;48.884;8.696;2023-09-12T04:51:40;20.10;99.90
22742;DHT22;11538;48.884;8.696;2023-09-12T04:54:07;20.20;99.90
22742;DHT22;11538;48.884;8.696;2023-09-12T04:56:34;20.10;99.90
22742;DHT22;11538;48.884;8.696;2023-09-12T04:59:01;20.10;99.90
22742;DHT22;11538;48.884;8.696;2023-09-12T05:01:28;20.10;99.90
22742;DHT22;11538;48.884;8.696;2023-09-12T05:03:55;20.10;99.90
22742;DHT22;11538;48.884;8.696;2023-09-12T05:06:22;20.10;99.90
22742;DHT22;11538;48.884;8.696;2023-09-12T05:08:51;20.10;99.90
22742;DHT22;11538;48.884;8.696;2023-09-12T05:11:18;20.20;99.90
22742;DHT22;11538;48.884;8.696;2023-09-12T05:13:45;20.10;99.90
22742;DHT22;11538;48.884;8.696;2023-09-12T05:16:19;20.10;99.90
22742;DHT22;11538;48.884;8.696;2023-09-12T05:18:46;20.10;99.90
22742;DHT22;11538;48.884;8.696;2023-09-12T05:21:13;20.10;99.90
22742;DHT22;11538;48.884;8.696;2023-09-12T05:23:40;20.20;99.90
22742;DHT22;11538;48.884;8.696;2023-09-12T05:26:07;20.20;99.90
22742;DHT22;11538;48.884;8.696;2023-09-12T05:28:34;20.10;99.90
22742;DHT22;11538;48.884;8.696;2023-09-12T05:31:01;20.20;99.90
22742;DHT22;11538;48.884;8.696;2023-09-12T05:33:29;20.10;99.90
22742;DHT22;11538;48.884;8.696;2023-09-12T05:35:59;20.10;99.90
22742;DHT22;11538;48.884;8.696;2023-09-12T05:38:26;20.10;99.90
22742;DHT22;11538;48.884;8.696;2023-09-12T05:40:53;20.20;99.90
22742;DHT22;11538;48.884;8.696;2023-09-12T05:43:20;20.20;99.90
22742;DHT22;11538;48.884;8.696;2023-09-12T05:45:47;20.20;99.90
22742;DHT22;11538;48.884;8.696;2023-09-12T05:48:14;20.20;99.90
22742;DHT22;11538;48.884;8.696;2023-09-12T05:50:41;20.30;99.90
22742;DHT22;11538;48.884;8.696;2023-09-12T05:53:08;20.30;99.90
22742;DHT22;11538;48.884;8.696;2023-09-12T05:55:35;20.20;99.90
22742;DHT22;11538;48.884;8.696;2023-09-12T05:58:02;20.30;99.90
22742;DHT22;11538;48.884;8.696;2023-09-12T06:00:32;20.20;99.90
22742;DHT22;11538;48.884;8.696;2023-09-12T06:03:00;20.20;99.90
22742;DHT22;11538;48.884;8.696;2023-09-12T06:05:27;20.30;99.90
22742;DHT22;11538;48.884;8.696;2023-09-12T06:07:54;20.30;99.90
22742;DHT22;11538;48.884;8.696;2023-09-12T06:10:21;20.30;99.90
22742;DHT22;11538;48.884;8.696;2023-09-12T06:12:48;20.40;99.90
22742;DHT22;11538;48.884;8.696;2023-09-12T06:15:16;20.40;99.90
22742;DHT22;11538;48.884;8.696;2023-09-12T06:17:43;20.50;99.90
22742;DHT22;11538;48.884;8.696;2023-09-12T06:20:10;20.50;99.90
22742;DHT22;11538;48.884;8.696;2023-09-12T06:22:37;20.50;99.90
22742;DHT22;11538;48.884;8.696;2023-09-12T06:25:05;20.50;99.90
22742;DHT22;11538;48.884;8.696;2023-09-12T06:27:32;20.60;99.90
22742;DHT22;11538;48.884;8.696;2023-09-12T06:29:59;20.60;99.90
22742;DHT22;11538;48.884;8.696;2023-09-12T06:32:26;20.60;99.90
22742;DHT22;11538;48.884;8.696;2023-09-12T06:34:53;20.60;99.90
22742;DHT22;11538;48.884;8.696;2023-09-12T06:37:20;20.60;99.90
22742;DHT22;11538;48.884;8.696;2023-09-12T06:39:50;20.60;99.90
22742;DHT22;11538;48.884;8.696;2023-09-12T06:42:18;20.60;99.90
22742;DHT22;11538;48.884;8.696;2023-09-12T06:44:45;20.60;99.90
22742;DHT22;11538;48.884;8.696;2023-09-12T06:47:12;20.70;99.90
22742;DHT22;11538;48.884;8.696;2023-09-12T06:49:40;20.60;99.90
22742;DHT22;11538;48.884;8.696;2023-09-12T06:52:07;20.60;99.90
22742;DHT22;11538;48.884;8.696;2023-09-12T06:54:36;20.60;99.90
22742;DHT22;11538;48.884;8.696;2023-09-12T06:57:03;20.70;99.90
22742;DHT22;11538;48.884;8.696;2023-09-12T06:59:31;20.70;99.90
22742;DHT22;11538;48.884;8.696;2023-09-12T07:01:58;20.70;99.90
22742;DHT22;11538;48.884;8.696;2023-09-12T07:04:25;20.80;99.90
22742;DHT22;11538;48.884;8.696;2023-09-12T07:06:53;20.80;99.90
22742;DHT22;11538;48.884;8.696;2023-09-12T07:09:20;20.90;99.90
22742;DHT22;11538;48.884;8.696;2023-09-12T07:11:48;21.00;99.90
22742;DHT22;11538;48.884;8.696;2023-09-12T07:14:15;21.00;99.90
22742;DHT22;11538;48.884;8.696;2023-09-12T07:16:42;21.00;99.90
22742;DHT22;11538;48.884;8.696;2023-09-12T07:19:09;21.10;99.90
22742;DHT22;11538;48.884;8.696;2023-09-12T07:21:36;21.10;99.90
22742;DHT22;11538;48.884;8.696;2023-09-12T07:24:04;21.20;99.90
22742;DHT22;11538;48.884;8.696;2023-09-12T07:26:32;21.20;99.90
22742;DHT22;11538;48.884;8.696;2023-09-12T07:28:59;21.30;99.90
22742;DHT22;11538;48.884;8.696;2023-09-12T07:31:29;21.40;99.90
22742;DHT22;11538;48.884;8.696;2023-09-12T07:33:56;21.50;99.90
22742;DHT22;11538;48.884;8.696;2023-09-12T07:36:23;21.60;99.90
22742;DHT22;11538;48.884;8.696;2023-09-12T07:38:50;21.70;99.90
22742;DHT22;11538;48.884;8.696;2023-09-12T07:41:17;21.80;99.90
22742;DHT22;11538;48.884;8.696;2023-09-12T07:43:45;21.90;99.90
22742;DHT22;11538;48.884;8.696;2023-09-12T07:46:12;22.10;99.90
22742;DHT22;11538;48.884;8.696;2023-09-12T07:48:40;22.20;99.90
22742;DHT22;11538;48.884;8.696;2023-09-12T07:51:14;22.40;99.90
22742;DHT22;11538;48.884;8.696;2023-09-12T07:53:44;22.50;99.90
22742;DHT22;11538;48.884;8.696;2023-09-12T07:56:12;22.70;99.90
22742;DHT22;11538;48.884;8.696;2023-09-12T07:58:39;22.90;99.90
22742;DHT22;11538;48.884;8.696;2023-09-12T08:01:10;23.10;99.90
22742;DHT22;11538;48.884;8.696;2023-09-12T08:03:37;23.30;99.90
22742;DHT22;11538;48.884;8.696;2023-09-12T08:06:07;23.50;99.90
22742;DHT22;11538;48.884;8.696;2023-09-12T08:08:34;23.80;99.90
22742;DHT22;11538;48.884;8.696;2023-09-12T08:11:02;24.00;99.90
22742;DHT22;11538;48.884;8.696;2023-09-12T08:13:29;24.20;99.90
22742;DHT22;11538;48.884;8.696;2023-09-12T08:15:58;24.50;99.90
22742;DHT22;11538;48.884;8.696;2023-09-12T08:18:29;24.80;99.90
22742;DHT22;11538;48.884;8.696;2023-09-12T08:21:00;25.00;99.90
22742;DHT22;11538;48.884;8.696;2023-09-12T08:23:27;25.30;99.90
22742;DHT22;11538;48.884;8.696;2023-09-12T08:25:54;25.60;99.90
22742;DHT22;11538;48.884;8.696;2023-09-12T08:28:21;25.80;99.90
22742;DHT22;11538;48.884;8.696;2023-09-12T08:30:48;26.10;99.90
22742;DHT22;11538;48.884;8.696;2023-09-12T08:33:15;26.30;99.90
22742;DHT22;11538;48.884;8.696;2023-09-12T08:35:42;26.60;99.90
22742;DHT22;11538;48.884;8.696;2023-09-12T08:38:09;26.80;99.90
22742;DHT22;11538;48.884;8.696;2023-09-12T08:40:37;27.10;99.90
22742;DHT22;11538;48.884;8.696;2023-09-12T08:43:04;27.30;99.90
22742;DHT22;11538;48.884;8.696;2023-09-12T08:45:31;27.60;99.90
22742;DHT22;11538;48.884;8.696;2023-09-12T08:48:03;27.80;99.90
22742;DHT22;11538;48.884;8.696;2023-09-12T08:50:33;28.00;99.90
22742;DHT22;11538;48.884;8.696;2023-09-12T08:53:01;28.30;99.90
22742;DHT22;11538;48.884;8.696;2023-09-12T08:55:34;28.50;99.90
22742;DHT22;11538;48.884;8.696;2023-09-12T08:58:04;28.70;99.90
22742;DHT22;11538;48.884;8.696;2023-09-12T09:00:33;28.90;99.90
22742;DHT22;11538;48.884;8.696;2023-09-12T09:03:01;29.10;99.90
22742;DHT22;11538;48.884;8.696;2023-09-12T09:05:30;29.20;99.90
22742;DHT22;11538;48.884;8.696;2023-09-12T09:08:00;29.30;99.90
22742;DHT22;11538;48.884;8.696;2023-09-12T09:10:29;29.60;99.90
22742;DHT22;11538;48.884;8.696;2023-09-12T09:13:16;29.70;99.90
22742;DHT22;11538;48.884;8.696;2023-09-12T09:15:43;29.90;99.90
22742;DHT22;11538;48.884;8.696;2023-09-12T09:18:10;30.10;99.90
22742;DHT22;11538;48.884;8.696;2023-09-12T09:20:39;30.20;99.90
22742;DHT22;11538;48.884;8.696;2023-09-12T09:23:09;30.40;99.90
22742;DHT22;11538;48.884;8.696;2023-09-12T09:25:42;30.60;99.90
22742;DHT22;11538;48.884;8.696;2023-09-12T09:28:19;30.80;99.90
22742;DHT22;11538;48.884;8.696;2023-09-12T09:30:49;31.00;99.90
22742;DHT22;11538;48.884;8.696;2023-09-12T09:33:18;31.20;99.90
22742;DHT22;11538;48.884;8.696;2023-09-12T09:35:47;31.40;99.90
22742;DHT22;11538;48.884;8.696;2023-09-12T09:38:19;31.60;99.90
22742;DHT22;11538;48.884;8.696;2023-09-12T09:40:48;31.70;99.90
22742;DHT22;11538;48.884;8.696;2023-09-12T09:43:20;31.70;99.90
22742;DHT22;11538;48.884;8.696;2023-09-12T09:45:48;31.90;99.90
22742;DHT22;11538;48.884;8.696;2023-09-12T09:48:23;32.00;99.90
22742;DHT22;11538;48.884;8.696;2023-09-12T09:51:00;32.10;99.90
22742;DHT22;11538;48.884;8.696;2023-09-12T09:53:29;32.20;99.90
22742;DHT22;11538;48.884;8.696;2023-09-12T09:58:51;32.20;99.90
22742;DHT22;11538;48.884;8.696;2023-09-12T10:01:28;31.90;99.90
22742;DHT22;11538;48.884;8.696;2023-09-12T10:03:59;31.70;99.90
22742;DHT22;11538;48.884;8.696;2023-09-12T10:06:28;31.50;99.90
22742;DHT22;11538;48.884;8.696;2023-09-12T10:08:58;31.40;99.90
22742;DHT22;11538;48.884;8.696;2023-09-12T10:11:28;31.40;99.90
22742;DHT22;11538;48.884;8.696;2023-09-12T10:14:01;31.40;99.90
22742;DHT22;11538;48.884;8.696;2023-09-12T10:16:38;31.40;99.90
22742;DHT22;11538;48.884;8.696;2023-09-12T10:19:15;31.50;99.90
22742;DHT22;11538;48.884;8.696;2023-09-12T10:22:12;31.80;99.90
22742;DHT22;11538;48.884;8.696;2023-09-12T10:24:49;32.00;99.90
22742;DHT22;11538;48.884;8.696;2023-09-12T10:27:19;32.30;99.90
22742;DHT22;11538;48.884;8.696;2023-09-12T10:29:46;32.50;99.90
22742;DHT22;11538;48.884;8.696;2023-09-12T10:32:17;32.70;99.90
22742;DHT22;11538;48.884;8.696;2023-09-12T10:34:46;32.90;99.90
22742;DHT22;11538;48.884;8.696;2023-09-12T10:37:16;33.10;99.90
22742;DHT22;11538;48.884;8.696;2023-09-12T10:39:47;33.30;99.90
22742;DHT22;11538;48.884;8.696;2023-09-12T10:42:17;33.60;99.90
22742;DHT22;11538;48.884;8.696;2023-09-12T10:44:46;33.80;99.90
22742;DHT22;11538;48.884;8.696;2023-09-12T10:47:14;33.90;99.90
22742;DHT22;11538;48.884;8.696;2023-09-12T10:49:43;34.00;99.90
22742;DHT22;11538;48.884;8.696;2023-09-12T10:52:24;34.10;99.90
22742;DHT22;11538;48.884;8.696;2023-09-12T10:54:52;34.20;99.90
22742;DHT22;11538;48.884;8.696;2023-09-12T10:57:20;34.40;99.90
22742;DHT22;11538;48.884;8.696;2023-09-12T11:02:37;34.70;99.90
22742;DHT22;11538;48.884;8.696;2023-09-12T11:05:07;34.90;99.90
22742;DHT22;11538;48.884;8.696;2023-09-12T11:08:00;35.00;99.90
22742;DHT22;11538;48.884;8.696;2023-09-12T11:10:28;35.10;99.90
22742;DHT22;11538;48.884;8.696;2023-09-12T11:12:58;35.30;99.90
22742;DHT22;11538;48.884;8.696;2023-09-12T11:15:27;35.40;99.90
22742;DHT22;11538;48.884;8.696;2023-09-12T11:18:03;35.70;99.90
22742;DHT22;11538;48.884;8.696;2023-09-12T11:21:01;35.80;99.90
22742;DHT22;11538;48.884;8.696;2023-09-12T11:23:30;36.00;99.90
22742;DHT22;11538;48.884;8.696;2023-09-12T11:26:05;36.20;99.90
22742;DHT22;11538;48.884;8.696;2023-09-12T11:28:42;36.40;99.90
22742;DHT22;11538;48.884;8.696;2023-09-12T11:31:11;36.50;99.90
22742;DHT22;11538;48.884;8.696;2023-09-12T11:33:40;36.80;99.90
22742;DHT22;11538;48.884;8.696;2023-09-12T11:36:13;37.00;99.90
22742;DHT22;11538;48.884;8.696;2023-09-12T11:38:40;37.30;99.90
22742;DHT22;11538;48.884;8.696;2023-09-12T11:41:07;37.50;99.90
22742;DHT22;11538;48.884;8.696;2023-09-12T11:43:37;37.70;99.90
22742;DHT22;11538;48.884;8.696;2023-09-12T11:46:06;37.80;99.90
22742;DHT22;11538;48.884;8.696;2023-09-12T11:48:34;38.10;99.90
22742;DHT22;11538;48.884;8.696;2023-09-12T11:51:07;38.20;99.90
22742;DHT22;11538;48.884;8.696;2023-09-12T11:53:34;38.40;99.90
22742;DHT22;11538;48.884;8.696;2023-09-12T11:56:02;38.60;99.90
22742;DHT22;11538;48.884;8.696;2023-09-12T11:58:29;38.80;99.90
22742;DHT22;11538;48.884;8.696;2023-09-12T12:00:57;38.90;99.90
22742;DHT22;11538;48.884;8.696;2023-09-12T12:03:27;39.00;99.90
22742;DHT22;11538;48.884;8.696;2023-09-12T12:05:55;39.00;99.90
22742;DHT22;11538;48.884;8.696;2023-09-12T12:08:24;39.10;99.90
22742;DHT22;11538;48.884;8.696;2023-09-12T12:10:54;39.20;99.90
22742;DHT22;11538;48.884;8.696;2023-09-12T12:13:22;39.30;99.90
22742;DHT22;11538;48.884;8.696;2023-09-12T12:15:50;39.40;99.90
22742;DHT22;11538;48.884;8.696;2023-09-12T12:18:17;39.50;99.90
22742;DHT22;11538;48.884;8.696;2023-09-12T12:20:45;39.60;99.90
22742;DHT22;11538;48.884;8.696;2023-09-12T12:23:12;39.70;99.90
22742;DHT22;11538;48.884;8.696;2023-09-12T12:25:39;39.80;99.90
22742;DHT22;11538;48.884;8.696;2023-09-12T12:28:06;39.90;99.90
22742;DHT22;11538;48.884;8.696;2023-09-12T12:30:35;40.00;99.90
22742;DHT22;11538;48.884;8.696;2023-09-12T12:33:09;40.10;99.90
22742;DHT22;11538;48.884;8.696;2023-09-12T12:36:03;40.10;99.90
22742;DHT22;11538;48.884;8.696;2023-09-12T12:38:37;40.20;99.90
22742;DHT22;11538;48.884;8.696;2023-09-12T12:41:25;40.20;99.90
22742;DHT22;11538;48.884;8.696;2023-09-12T12:44:05;40.40;99.90
22742;DHT22;11538;48.884;8.696;2023-09-12T12:46:33;40.40;99.90
22742;DHT22;11538;48.884;8.696;2023-09-12T12:49:00;40.40;99.90
22742;DHT22;11538;48.884;8.696;2023-09-12T12:51:27;40.50;99.90
22742;DHT22;11538;48.884;8.696;2023-09-12T12:54:04;40.50;99.90
22742;DHT22;11538;48.884;8.696;2023-09-12T12:56:38;40.50;99.90
22742;DHT22;11538;48.884;8.696;2023-09-12T12:59:06;40.40;99.90
22742;DHT22;11538;48.884;8.696;2023-09-12T13:01:37;40.50;99.90
22742;DHT22;11538;48.884;8.696;2023-09-12T13:04:06;40.50;99.90
22742;DHT22;11538;48.884;8.696;2023-09-12T13:06:35;40.70;99.90
22742;DHT22;11538;48.884;8.696;2023-09-12T13:09:04;40.80;99.90
22742;DHT22;11538;48.884;8.696;2023-09-12T13:11:33;40.90;99.90
22742;DHT22;11538;48.884;8.696;2023-09-12T13:14:02;40.90;99.90
22742;DHT22;11538;48.884;8.696;2023-09-12T13:16:35;40.90;99.90
22742;DHT22;11538;48.884;8.696;2023-09-12T13:19:03;41.00;99.90
22742;DHT22;11538;48.884;8.696;2023-09-12T13:21:31;41.00;99.90
22742;DHT22;11538;48.884;8.696;2023-09-12T13:23:59;41.10;99.90
22742;DHT22;11538;48.884;8.696;2023-09-12T13:26:28;41.10;99.90
22742;DHT22;11538;48.884;8.696;2023-09-12T13:28:56;41.00;99.90
22742;DHT22;11538;48.884;8.696;2023-09-12T13:31:24;41.00;99.90
22742;DHT22;11538;48.884;8.696;2023-09-12T13:33:52;40.90;99.90
22742;DHT22;11538;48.884;8.696;2023-09-12T13:36:19;40.90;99.90
22742;DHT22;11538;48.884;8.696;2023-09-12T13:38:46;40.90;99.90
22742;DHT22;11538;48.884;8.696;2023-09-12T13:41:15;40.90;99.90
22742;DHT22;11538;48.884;8.696;2023-09-12T13:43:42;40.80;99.90
22742;DHT22;11538;48.884;8.696;2023-09-12T13:46:14;40.80;99.90
22742;DHT22;11538;48.884;8.696;2023-09-12T13:48:41;40.70;99.90
22742;DHT22;11538;48.884;8.696;2023-09-12T13:51:08;40.60;99.90
22742;DHT22;11538;48.884;8.696;2023-09-12T13:53:35;40.50;99.90
22742;DHT22;11538;48.884;8.696;2023-09-12T13:56:02;40.40;99.90
22742;DHT22;11538;48.884;8.696;2023-09-12T13:58:29;40.50;99.90
22742;DHT22;11538;48.884;8.696;2023-09-12T14:01:15;40.50;99.90
22742;DHT22;11538;48.884;8.696;2023-09-12T14:04:00;40.40;99.90
22742;DHT22;11538;48.884;8.696;2023-09-12T14:06:28;40.40;99.90
22742;DHT22;11538;48.884;8.696;2023-09-12T14:08:56;40.30;99.90
22742;DHT22;11538;48.884;8.696;2023-09-12T14:11:23;40.30;99.90
22742;DHT22;11538;48.884;8.696;2023-09-12T14:14:02;40.20;99.90
22742;DHT22;11538;48.884;8.696;2023-09-12T14:16:41;40.20;99.90
22742;DHT22;11538;48.884;8.696;2023-09-12T14:19:13;39.90;99.90
22742;DHT22;11538;48.884;8.696;2023-09-12T14:21:42;39.80;99.90
22742;DHT22;11538;48.884;8.696;2023-09-12T14:24:12;39.70;99.90
22742;DHT22;11538;48.884;8.696;2023-09-12T14:26:39;39.50;99.90
22742;DHT22;11538;48.884;8.696;2023-09-12T14:29:07;39.30;99.90
22742;DHT22;11538;48.884;8.696;2023-09-12T14:31:35;39.00;99.90
22742;DHT22;11538;48.884;8.696;2023-09-12T14:34:04;38.60;99.90
22742;DHT22;11538;48.884;8.696;2023-09-12T14:36:32;38.20;99.90
22742;DHT22;11538;48.884;8.696;2023-09-12T14:38:59;37.80;99.90
22742;DHT22;11538;48.884;8.696;2023-09-12T14:41:26;37.50;99.90
22742;DHT22;11538;48.884;8.696;2023-09-12T14:43:53;37.10;99.90
22742;DHT22;11538;48.884;8.696;2023-09-12T14:46:20;36.80;99.90
22742;DHT22;11538;48.884;8.696;2023-09-12T14:48:47;36.40;99.90
22742;DHT22;11538;48.884;8.696;2023-09-12T14:51:27;36.10;99.90
22742;DHT22;11538;48.884;8.696;2023-09-12T14:54:00;35.90;99.90
22742;DHT22;11538;48.884;8.696;2023-09-12T14:56:27;35.70;99.90
22742;DHT22;11538;48.884;8.696;2023-09-12T14:58:54;35.50;99.90
22742;DHT22;11538;48.884;8.696;2023-09-12T15:01:21;35.30;99.90
22742;DHT22;11538;48.884;8.696;2023-09-12T15:03:48;35.10;99.90
22742;DHT22;11538;48.884;8.696;2023-09-12T15:06:15;34.90;99.90
22742;DHT22;11538;48.884;8.696;2023-09-12T15:08:45;34.70;99.90
22742;DHT22;11538;48.884;8.696;2023-09-12T15:11:12;34.40;99.90
22742;DHT22;11538;48.884;8.696;2023-09-12T15:13:39;34.20;99.90
22742;DHT22;11538;48.884;8.696;2023-09-12T15:16:08;34.00;99.90
22742;DHT22;11538;48.884;8.696;2023-09-12T15:18:36;33.90;99.90
22742;DHT22;11538;48.884;8.696;2023-09-12T15:21:05;33.70;99.90
22742;DHT22;11538;48.884;8.696;2023-09-12T15:23:32;33.60;99.90
22742;DHT22;11538;48.884;8.696;2023-09-12T15:25:59;33.40;99.90
22742;DHT22;11538;48.884;8.696;2023-09-12T15:28:26;33.20;99.90
22742;DHT22;11538;48.884;8.696;2023-09-12T15:30:53;33.10;99.90
22742;DHT22;11538;48.884;8.696;2023-09-12T15:33:20;32.90;99.90
22742;DHT22;11538;48.884;8.696;2023-09-12T15:35:49;32.80;99.90
22742;DHT22;11538;48.884;8.696;2023-09-12T15:38:16;32.60;99.90
22742;DHT22;11538;48.884;8.696;2023-09-12T15:40:43;32.50;99.90
22742;DHT22;11538;48.884;8.696;2023-09-12T15:43:10;32.40;99.90
22742;DHT22;11538;48.884;8.696;2023-09-12T15:45:50;32.30;99.90
22742;DHT22;11538;48.884;8.696;2023-09-12T15:48:18;32.20;99.90
22742;DHT22;11538;48.884;8.696;2023-09-12T15:50:45;32.20;99.90